首页
METAR-TAF:

METAR-TAF

机场 :

Waynesville Regional Airport at Forney Field

Fort Leonard Wood, 密蘇里州, 美国

纬度: 37-44N, 经度: 092-08W, 海拔: 353米

当前天气观测

该预报发布于17分钟前的07:49 UTC
静风
温度 5°C
湿度 87%
气压 1018 hPa
能見度: 12.9公里
多云层高于700英尺
阴天层高于1400英尺
小毛毛雨

METAR: KTBN 050749Z AUTO 00000KT 8SM -DZ BKN007 OVC014 05/03 A3007 RMK AO2 DZB49 CIG 006 RWY33 SLP191 $

时间: 03:06 (08:06 UTC)


TAF: 丢失

超过4000个机场的气象观测和天气预报(METAR&TAF报告)。

可查询的气象台以黄色和红色小点在地图上表示。

将鼠标移到小点上方,可查看气象台名称。

然后点击查看天气观测和预报。

如需切换地图:点击带黑十字的绿色按钮放大地图;点击带横线的绿色按钮缩小地图;或者点击绿色箭头查看邻近地区的地图。


METAR-TAF: